High Point, Missouri
Current Conditions -  °F | °C
As of 8:53 AM on Saturday 22 Nov 2014 (Local Time) from KJEF Reporting Station
Overcast Overcast  
Wind Chill: 54°   Ceiling: 2300
Heat Index: 54°   Visibility: 10mi
Dew Point: 45°   Wind: 7mph
Humidity: 72%   Direction: 170°S
Pressure: 30.06"   Gusts: NA
Location:  38.48°N, 92.59°W
Report Text: KJEF 221453Z 17006KT 10SM OVC023 12/07 A3006 RMK AO2 SLP171 T01220072 55003
Loading
Personal Weather Stations






























Interactive Weather Map New forecast layout! Learn more

10-Day Weather Forecast

Advertisements
Track Severe Weather on mobile